createdAt,value
2018-12-17T00:04:45.318Z,12.00
2018-12-17T00:09:52.345Z,11.80
2018-12-17T00:14:58.462Z,12.00
2018-12-17T00:20:03.891Z,11.90
2018-12-17T00:25:09.683Z,11.80
2018-12-17T00:30:14.558Z,11.60
2018-12-17T00:35:21.461Z,11.70
2018-12-17T00:40:28.220Z,11.70
2018-12-17T00:45:33.150Z,11.40
2018-12-17T00:50:39.289Z,11.30
2018-12-17T00:55:44.237Z,11.20
2018-12-17T01:00:50.646Z,11.20
2018-12-17T01:05:55.726Z,11.40
2018-12-17T01:11:01.941Z,11.40
2018-12-17T01:16:08.539Z,11.40
2018-12-17T01:21:13.469Z,11.40
2018-12-17T01:26:20.447Z,11.40
2018-12-17T01:31:25.331Z,11.60
2018-12-17T01:36:31.178Z,11.50
2018-12-17T01:41:36.008Z,11.50
2018-12-17T01:46:42.114Z,11.50
2018-12-17T01:51:48.334Z,11.40
2018-12-17T01:56:53.313Z,11.30
2018-12-17T02:01:59.578Z,11.20
2018-12-17T02:07:05.686Z,11.20
2018-12-17T02:12:12.039Z,11.40
2018-12-17T02:17:17.048Z,11.40
2018-12-17T02:22:22.236Z,11.40
2018-12-17T02:27:28.415Z,11.30
2018-12-17T02:32:33.294Z,11.30
2018-12-17T02:37:39.731Z,11.20
2018-12-17T02:42:44.590Z,11.00
2018-12-17T02:47:50.822Z,10.90
2018-12-17T02:52:55.907Z,10.80
2018-12-17T02:58:01.949Z,10.60
2018-12-17T03:03:07.670Z,10.60
2018-12-17T03:08:12.642Z,10.70
2018-12-17T03:13:18.443Z,10.60
2018-12-17T03:18:23.765Z,10.40
2018-12-17T03:23:29.819Z,10.30
2018-12-17T03:28:34.958Z,10.20
2018-12-17T03:33:41.066Z,10.00
2018-12-17T03:38:45.938Z,9.70
2018-12-17T03:43:52.548Z,9.30
2018-12-17T03:48:58.289Z,9.30
2018-12-17T03:54:03.232Z,9.10
2018-12-17T03:59:18.509Z,9.70
2018-12-17T04:04:23.355Z,9.80
2018-12-17T04:09:29.726Z,9.90
2018-12-17T04:14:35.401Z,9.50
2018-12-17T04:19:41.304Z,8.90
2018-12-17T04:24:46.245Z,9.10
2018-12-17T04:29:52.704Z,9.40
2018-12-17T04:34:58.304Z,9.70
2018-12-17T04:40:04.476Z,9.70
2018-12-17T04:45:11.148Z,9.60
2018-12-17T04:50:16.228Z,9.70
2018-12-17T04:55:22.191Z,9.40
2018-12-17T05:00:27.797Z,9.10
2018-12-17T05:05:32.652Z,8.80
2018-12-17T05:10:38.422Z,8.50
2018-12-17T05:15:43.224Z,8.40
2018-12-17T05:20:52.194Z,8.30
2018-12-17T05:26:00.081Z,8.40
2018-12-17T05:31:05.644Z,8.30
2018-12-17T05:36:12.051Z,8.40
2018-12-17T05:41:17.779Z,8.50
2018-12-17T05:46:23.012Z,8.60
2018-12-17T05:51:29.648Z,8.50
2018-12-17T05:56:34.587Z,8.50
2018-12-17T06:01:41.037Z,8.40
2018-12-17T07:09:03.827Z,8.90
2018-12-17T07:14:08.929Z,8.80
2018-12-17T07:19:13.937Z,8.90
2018-12-17T07:24:20.099Z,8.80
2018-12-17T07:29:24.928Z,8.90
2018-12-17T07:34:31.685Z,9.00
2018-12-17T07:39:38.488Z,9.10
2018-12-17T07:44:43.398Z,9.00
2018-12-17T07:49:49.339Z,9.00
2018-12-17T07:54:54.319Z,9.10
2018-12-17T08:00:00.402Z,9.20
2018-12-17T08:05:05.617Z,9.60
2018-12-17T08:10:11.624Z,9.70
2018-12-17T08:15:18.903Z,9.90
2018-12-17T08:20:23.698Z,9.90
2018-12-17T08:25:29.688Z,10.00
2018-12-17T08:30:37.508Z,10.00
2018-12-17T08:35:42.510Z,10.30
2018-12-17T08:41:00.755Z,10.50
2018-12-17T08:46:05.705Z,10.60
2018-12-17T08:51:12.111Z,10.80
2018-12-17T08:56:18.773Z,11.00
2018-12-17T09:01:25.220Z,11.20
2018-12-17T09:06:31.207Z,11.40
2018-12-17T09:11:36.110Z,11.40
2018-12-17T09:16:42.358Z,11.40
2018-12-17T09:21:48.705Z,11.60
2018-12-17T09:26:54.917Z,11.70
2018-12-17T09:32:00.976Z,11.80
2018-12-17T09:37:05.979Z,12.00
2018-12-17T09:42:12.114Z,12.20
2018-12-17T09:47:18.988Z,12.10
2018-12-17T09:52:23.982Z,12.10
2018-12-17T09:57:29.626Z,12.20
2018-12-17T10:02:34.618Z,12.30
2018-12-17T10:07:40.371Z,12.50
2018-12-17T10:12:45.264Z,12.60
2018-12-17T10:17:51.408Z,12.80
2018-12-17T10:22:58.506Z,12.90
2018-12-17T10:28:03.378Z,13.40
2018-12-17T10:33:09.940Z,13.50
2018-12-17T10:38:14.786Z,13.50
2018-12-17T10:43:21.550Z,13.80
2018-12-17T10:48:27.860Z,14.20
2018-12-17T10:53:33.075Z,14.50
2018-12-17T10:58:39.836Z,14.80
2018-12-17T11:03:49.928Z,15.20
2018-12-17T11:08:55.015Z,15.90
2018-12-17T11:14:00.545Z,15.80
2018-12-17T11:19:05.497Z,15.90
2018-12-17T11:24:11.170Z,15.50
2018-12-17T11:29:16.207Z,15.60
2018-12-17T11:34:22.040Z,16.00
2018-12-17T11:39:28.516Z,16.00
2018-12-17T11:44:33.680Z,16.60
2018-12-17T11:49:40.308Z,16.40
2018-12-17T11:54:45.270Z,16.30
2018-12-17T11:59:51.214Z,17.10
2018-12-17T12:04:56.759Z,17.20
2018-12-17T12:10:02.229Z,17.50
2018-12-17T12:15:07.779Z,17.20
2018-12-17T12:20:13.833Z,17.40
2018-12-17T12:25:19.049Z,17.60
2018-12-17T12:30:24.044Z,17.70
2018-12-17T12:35:29.525Z,17.50
2018-12-17T12:40:34.412Z,17.40
2018-12-17T12:45:41.215Z,17.60
2018-12-17T12:50:47.570Z,18.10
2018-12-17T12:55:53.488Z,18.20
2018-12-17T13:00:58.904Z,17.80
2018-12-17T13:06:03.740Z,17.70
2018-12-17T13:11:09.745Z,17.80
2018-12-17T13:16:14.781Z,17.70
2018-12-17T13:21:21.247Z,17.80
2018-12-17T13:26:27.026Z,18.00
2018-12-17T13:31:32.072Z,18.10
2018-12-17T13:36:38.509Z,17.70
2018-12-17T13:41:43.446Z,17.80
2018-12-17T13:46:49.314Z,18.10
2018-12-17T13:51:59.480Z,18.20
2018-12-17T13:57:04.487Z,17.70
2018-12-17T14:02:11.101Z,17.60
2018-12-17T14:07:16.050Z,18.10
2018-12-17T14:12:23.007Z,18.50
2018-12-17T14:17:35.076Z,18.10
2018-12-17T14:22:41.135Z,18.10
2018-12-17T14:27:46.168Z,18.30
2018-12-17T14:32:52.573Z,17.90
2018-12-17T14:38:03.005Z,17.30
2018-12-17T14:43:09.880Z,16.60
2018-12-17T14:48:14.714Z,16.30
2018-12-17T14:53:20.775Z,16.10
2018-12-17T14:58:25.876Z,16.00
2018-12-17T15:03:32.139Z,16.00
2018-12-17T15:08:37.778Z,16.00
2018-12-17T15:13:42.795Z,15.90
2018-12-17T15:18:47.842Z,16.00
2018-12-17T15:23:53.531Z,15.40
2018-12-17T15:28:59.812Z,15.20
2018-12-17T15:34:04.855Z,15.00
2018-12-17T15:39:11.147Z,14.70
2018-12-17T15:44:16.177Z,14.50
2018-12-17T15:49:22.799Z,14.30
2018-12-17T15:54:29.272Z,14.20
2018-12-17T15:59:34.442Z,14.30
2018-12-17T16:04:41.148Z,14.10
2018-12-17T16:09:46.992Z,14.00
2018-12-17T16:14:52.786Z,13.60
2018-12-17T16:19:59.636Z,13.20
2018-12-17T16:25:04.994Z,13.00
2018-12-17T16:30:11.975Z,12.80
2018-12-17T16:35:17.751Z,12.70
2018-12-17T16:40:24.233Z,12.40
2018-12-17T16:45:31.260Z,12.50
2018-12-17T16:50:36.294Z,12.50
2018-12-17T16:55:42.007Z,12.10
2018-12-17T17:00:48.974Z,12.00
2018-12-17T17:05:54.052Z,11.80
2018-12-17T17:10:59.257Z,11.50
2018-12-17T17:16:05.332Z,11.30
2018-12-17T17:21:11.219Z,11.40
2018-12-17T17:26:16.137Z,11.70
2018-12-17T17:31:26.133Z,11.80
2018-12-17T17:36:32.045Z,11.80
2018-12-17T17:41:37.655Z,12.00
2018-12-17T17:46:42.586Z,11.90
2018-12-17T17:51:49.477Z,11.70
2018-12-17T17:56:54.484Z,11.60
2018-12-17T18:02:01.043Z,11.50
2018-12-17T18:07:06.251Z,11.50
2018-12-17T18:12:13.975Z,11.50
2018-12-17T18:17:19.782Z,11.60
2018-12-17T18:22:26.147Z,11.30
2018-12-17T18:27:32.227Z,11.10
2018-12-17T18:32:37.683Z,11.10
2018-12-17T18:37:43.451Z,11.10
2018-12-17T18:42:49.834Z,11.20
2018-12-17T18:47:54.953Z,10.90
2018-12-17T18:53:01.239Z,10.80
2018-12-17T18:58:06.122Z,10.80
2018-12-17T19:03:13.263Z,10.80
2018-12-17T19:08:19.498Z,10.70
2018-12-17T19:13:28.158Z,10.60
2018-12-17T19:18:35.634Z,10.40
2018-12-17T19:23:45.234Z,10.40
2018-12-17T19:28:51.359Z,10.40
2018-12-17T19:33:57.745Z,10.40
2018-12-17T19:39:02.895Z,10.10
2018-12-17T19:44:09.789Z,10.10
2018-12-17T19:49:14.978Z,10.00
2018-12-17T19:54:23.001Z,10.20
2018-12-17T19:59:30.873Z,10.00
2018-12-17T20:04:36.750Z,10.00
2018-12-17T20:09:44.898Z,9.90
2018-12-17T20:14:55.010Z,10.00
2018-12-17T20:20:04.158Z,10.10
2018-12-17T20:25:12.832Z,10.20
2018-12-17T20:30:20.669Z,10.20
2018-12-17T20:35:29.355Z,10.20
2018-12-17T20:40:36.731Z,10.10
2018-12-17T20:45:42.508Z,9.90
2018-12-17T20:50:48.430Z,9.90
2018-12-17T20:55:54.358Z,9.90
2018-12-17T21:00:59.967Z,9.80
2018-12-17T21:06:04.987Z,9.70
2018-12-17T21:11:11.851Z,9.90
2018-12-17T21:16:17.598Z,9.90
2018-12-17T21:21:23.096Z,9.90
2018-12-17T21:26:29.782Z,9.90
2018-12-17T21:31:34.792Z,10.00
2018-12-17T21:36:41.755Z,9.90
2018-12-17T21:41:47.713Z,10.00
2018-12-17T21:46:53.224Z,9.90
2018-12-17T21:51:59.740Z,9.90
2018-12-17T21:57:04.836Z,9.80
2018-12-17T22:02:11.336Z,9.80
2018-12-17T22:07:16.266Z,9.60
2018-12-17T22:12:22.270Z,9.70
2018-12-17T22:17:28.401Z,9.80
2018-12-17T22:22:33.300Z,9.60
2018-12-17T22:27:39.766Z,9.60
2018-12-17T22:32:44.737Z,9.50
2018-12-17T22:37:52.130Z,9.70
2018-12-17T22:42:58.466Z,9.70
2018-12-17T22:48:04.271Z,9.60
2018-12-17T22:53:11.032Z,9.40
2018-12-17T22:58:15.992Z,9.40
2018-12-17T23:03:26.218Z,9.50
2018-12-17T23:08:31.177Z,9.50
2018-12-17T23:13:46.946Z,9.50
2018-12-17T23:18:51.920Z,9.40
2018-12-17T23:23:57.744Z,9.60
2018-12-17T23:29:02.773Z,9.60
2018-12-17T23:34:09.664Z,9.60
2018-12-17T23:39:16.671Z,9.30
2018-12-17T23:44:23.263Z,9.20
2018-12-17T23:49:29.059Z,9.20
2018-12-17T23:54:35.165Z,9.20
2018-12-17T23:59:43.460Z,9.20
